Impacts METAR Board
IDs:

KCLE - Cleveland/Hopkins In, OH, US

Updated at: 2300 UTC 01 Mar 2021
Potential Impact None Slight Moderate High
Time 01/11Z 01/12Z 01/13Z 01/14Z 01/15Z 01/16Z 01/17Z 01/18Z 01/19Z 01/20Z 01/21Z 01/22Z 01/23Z
Temp37 36 36 36 36 36 36 39 39 37 38 36 35
Dewpt30 29 27 27 25 23 24 23 22 22 21 21 19
Altim29.85 29.89 29.92 29.96 29.97 29.98 29.98 29.99 30.01 30.03 30.07 30.10 30.13
VIS10 10 10 10 10 10 10 10 10 10 10 10 10
CIG29 32 34 37 39 35 -- -- -- 60 70 70 --
CoverOVCOVCOVCOVCOVCBKNSCTFEWFEWBKNOVCBKNFEW
FltCatMVFRVFRVFRVFRVFRVFRVFRVFRVFRVFRVFRVFRVFR
WX--------------------------
WDir290290290290290290290280290310290300300
WSpd17 14 11 11 16 15 17 18 21 16 21 21 20
WGst22 -- -- 19 23 -- 25 28 30 30 32 25 25
Raw hourly METARs
KCLE 011051Z 29017G22KT 10SM OVC029 03/M01 A2985 RMK AO2 SLP128 T00281011 $
KCLE 011151Z 29014KT 10SM BKN032 OVC200 02/M02 A2989 RMK AO2 SLP142 60000 70019 T00221017 10078 20022 53029 $
KCLE 011251Z 29011KT 10SM BKN034 OVC200 02/M03 A2992 RMK AO2 SLP151 T00221028
KCLE 011351Z 29011G19KT 10SM OVC037 02/M03 A2996 RMK AO2 SLP166 T00221028
KCLE 011451Z 29016G23KT 10SM OVC039 02/M04 A2997 RMK AO2 PK WND 30028/1422 SLP168 T00221039 51025
KCLE 011551Z 29015KT 10SM BKN035 BKN250 02/M05 A2998 RMK AO2 PK WND 28029/1531 SLP171 T00221050
KCLE 011651Z 29017G25KT 10SM SCT033 02/M04 A2998 RMK AO2 SLP173 T00221044
KCLE 011751Z 28018G28KT 10SM FEW035 04/M05 A2999 RMK AO2 PK WND 28028/1747 SLP176 T00391050 10039 20017 53007
KCLE 011851Z 29021G30KT 10SM FEW043 04/M06 A3001 RMK AO2 PK WND 28031/1809 SLP185 T00391056 $
KCLE 011951Z 31016G30KT 10SM FEW043 BKN060 BKN100 03/M06 A3003 RMK AO2 PK WND 27032/1902 SLP192 T00281056
KCLE 012051Z 29021G32KT 10SM OVC070 03/M06 A3007 RMK AO2 PK WND 29032/2014 SLP205 T00331061 53027
KCLE 012151Z 30021G25KT 10SM FEW041 SCT055 BKN070 02/M06 A3010 RMK AO2 PK WND 30030/2108 SLP216 T00221061
KCLE 012251Z 30020G25KT 10SM FEW050 02/M07 A3013 RMK AO2 PK WND 29027/2210 SLP227 T00171072



Page loaded:  23:31 UTC  |   03:31 PM Pacific  |   04:31 PM Mountain  |   05:31 PM Central  |   06:31 PM Eastern

 

ADVISORIES

FORECASTS

FORECASTS

OBSERVATIONS

USER TOOLS

ABOUT US